createdAt,value
2023-04-15T00:00:51.048Z,98.72
2023-04-15T00:01:51.124Z,98.85
2023-04-15T00:02:51.123Z,97.91
2023-04-15T00:03:51.167Z,97.85
2023-04-15T00:04:51.114Z,97.69
2023-04-15T00:05:50.998Z,97.20
2023-04-15T00:06:51.018Z,97.64
2023-04-15T00:07:51.013Z,96.84
2023-04-15T00:08:50.978Z,97.04
2023-04-15T00:09:51.010Z,96.86
2023-04-15T00:10:51.007Z,96.02
2023-04-15T00:11:50.988Z,96.60
2023-04-15T00:12:50.956Z,95.69
2023-04-15T00:13:50.972Z,96.15
2023-04-15T00:14:50.944Z,96.85
2023-04-15T00:15:50.941Z,96.27
2023-04-15T00:16:50.972Z,96.51
2023-04-15T00:17:50.973Z,96.75
2023-04-15T00:18:50.947Z,94.79
2023-04-15T00:19:50.944Z,96.71
2023-04-15T00:20:50.903Z,95.11
2023-04-15T00:21:50.906Z,95.04
2023-04-15T00:22:50.907Z,95.13
2023-04-15T00:23:50.887Z,94.98
2023-04-15T00:24:50.882Z,95.52
2023-04-15T00:25:50.867Z,94.48
2023-04-15T00:26:50.846Z,95.18
2023-04-15T00:27:50.849Z,94.50
2023-04-15T00:28:50.857Z,94.48
2023-04-15T00:29:50.881Z,94.20
2023-04-15T00:30:50.916Z,93.45
2023-04-15T00:31:50.845Z,94.40
2023-04-15T00:32:50.975Z,93.31
2023-04-15T00:33:50.815Z,94.93
2023-04-15T00:34:50.841Z,95.21
2023-04-15T00:35:50.860Z,94.57
2023-04-15T00:36:50.843Z,94.08
2023-04-15T00:37:50.840Z,94.29
2023-04-15T00:38:50.856Z,93.61
2023-04-15T00:39:50.873Z,93.01
2023-04-15T00:40:50.892Z,94.87
2023-04-15T00:41:50.867Z,93.72
2023-04-15T00:42:50.882Z,92.69
2023-04-15T00:43:50.939Z,93.01
2023-04-15T00:44:50.905Z,91.68
2023-04-15T00:45:50.949Z,93.97
2023-04-15T00:46:50.903Z,91.90
2023-04-15T00:47:50.941Z,92.87
2023-04-15T00:48:50.894Z,95.00
2023-04-15T00:49:50.934Z,92.72
2023-04-15T00:50:50.909Z,93.29
2023-04-15T00:51:50.926Z,91.79
2023-04-15T00:52:50.966Z,92.97
2023-04-15T00:53:50.942Z,92.31
2023-04-15T00:54:50.949Z,92.43
2023-04-15T00:55:50.964Z,91.23
2023-04-15T00:56:50.971Z,91.54
2023-04-15T00:57:50.980Z,91.98
2023-04-15T00:58:50.953Z,92.79
2023-04-15T00:59:50.961Z,92.66
2023-04-15T01:00:50.985Z,91.03
2023-04-15T01:01:51.045Z,91.38
2023-04-15T01:02:51.048Z,91.88
2023-04-15T01:03:51.135Z,91.72
2023-04-15T01:04:51.006Z,91.87
2023-04-15T01:05:51.009Z,89.85
2023-04-15T01:06:50.980Z,91.22
2023-04-15T01:07:50.999Z,91.16
2023-04-15T01:08:51.011Z,92.65
2023-04-15T01:09:50.997Z,91.68
2023-04-15T01:10:50.984Z,90.53
2023-04-15T01:11:51.026Z,91.18
2023-04-15T01:12:51.035Z,91.80
2023-04-15T01:13:51.032Z,92.13
2023-04-15T01:14:51.056Z,90.09
2023-04-15T01:15:51.074Z,88.39
2023-04-15T01:16:51.037Z,90.63
2023-04-15T01:17:51.045Z,89.42
2023-04-15T01:18:51.069Z,92.24
2023-04-15T01:19:51.048Z,90.70
2023-04-15T01:20:51.063Z,89.93
2023-04-15T01:21:51.066Z,91.30
2023-04-15T01:22:51.040Z,89.09
2023-04-15T01:23:51.059Z,90.83
2023-04-15T01:24:51.054Z,90.16
2023-04-15T01:25:51.079Z,89.97
2023-04-15T01:26:51.085Z,88.68
2023-04-15T01:27:51.088Z,89.84
2023-04-15T01:28:51.133Z,90.43
2023-04-15T01:29:51.085Z,88.35
2023-04-15T01:30:51.087Z,88.64
2023-04-15T01:31:51.209Z,89.59
2023-04-15T01:32:51.142Z,89.67
2023-04-15T01:33:51.088Z,89.08
2023-04-15T01:34:51.120Z,88.24
2023-04-15T01:35:51.112Z,89.38
2023-04-15T01:36:51.134Z,89.01
2023-04-15T01:37:51.114Z,89.12
2023-04-15T01:38:51.140Z,89.73
2023-04-15T01:39:51.114Z,89.18
2023-04-15T01:40:51.125Z,87.97
2023-04-15T01:41:51.125Z,88.60
2023-04-15T01:42:51.119Z,89.71
2023-04-15T01:43:51.145Z,86.85
2023-04-15T01:44:51.144Z,87.78
2023-04-15T01:45:51.144Z,89.43
2023-04-15T01:46:51.227Z,86.47
2023-04-15T01:47:51.214Z,88.09
2023-04-15T01:48:51.174Z,88.82
2023-04-15T01:49:51.158Z,87.92
2023-04-15T01:50:51.187Z,86.49
2023-04-15T01:51:51.162Z,86.91
2023-04-15T01:52:51.183Z,86.94
2023-04-15T01:53:51.156Z,89.08
2023-04-15T01:54:51.154Z,88.66
2023-04-15T01:55:51.161Z,86.71
2023-04-15T01:56:51.169Z,88.00
2023-04-15T01:57:51.202Z,86.42
2023-04-15T01:58:51.182Z,87.72
2023-04-15T01:59:51.210Z,87.73
2023-04-15T02:00:51.198Z,87.37
2023-04-15T02:01:51.249Z,84.65
2023-04-15T02:02:51.281Z,85.39
2023-04-15T02:03:51.361Z,86.56
2023-04-15T02:04:51.228Z,85.90
2023-04-15T02:05:51.237Z,86.07
2023-04-15T02:06:51.228Z,85.55
2023-04-15T02:07:51.206Z,85.77
2023-04-15T02:08:51.240Z,86.12
2023-04-15T02:09:51.243Z,86.28
2023-04-15T02:10:51.253Z,84.82
2023-04-15T02:11:51.287Z,84.86
2023-04-15T02:12:51.290Z,84.85
2023-04-15T02:13:51.286Z,85.77
2023-04-15T02:14:51.291Z,84.87
2023-04-15T02:15:51.269Z,84.92
2023-04-15T02:16:51.418Z,86.26
2023-04-15T02:17:51.334Z,84.38
2023-04-15T02:18:51.325Z,85.96
2023-04-15T02:19:51.329Z,83.99
2023-04-15T02:20:51.336Z,83.77
2023-04-15T02:21:51.337Z,86.35
2023-04-15T02:22:51.371Z,85.46
2023-04-15T02:23:53.560Z,86.68
2023-04-15T02:24:51.498Z,83.37
2023-04-15T02:25:53.279Z,83.91
2023-04-15T02:26:51.659Z,84.96
2023-04-15T02:27:51.703Z,85.49
2023-04-15T02:28:51.678Z,84.30
2023-04-15T02:29:51.721Z,84.21
2023-04-15T02:30:51.726Z,83.61
2023-04-15T02:31:51.784Z,83.21
2023-04-15T02:32:51.717Z,83.93
2023-04-15T02:33:51.713Z,83.92
2023-04-15T02:34:51.724Z,85.12
2023-04-15T02:35:51.753Z,83.99
2023-04-15T02:36:51.782Z,82.59
2023-04-15T02:37:51.775Z,83.32
2023-04-15T02:38:51.796Z,83.56
2023-04-15T02:39:51.788Z,80.88
2023-04-15T02:40:51.824Z,80.32
2023-04-15T02:41:51.828Z,82.04
2023-04-15T02:42:52.360Z,81.63
2023-04-15T02:43:51.818Z,82.60
2023-04-15T02:44:51.829Z,80.24
2023-04-15T02:45:51.854Z,83.41
2023-04-15T02:46:51.883Z,83.24
2023-04-15T02:47:51.912Z,80.65
2023-04-15T02:48:51.867Z,83.89
2023-04-15T02:49:51.888Z,83.33
2023-04-15T02:50:52.076Z,81.60
2023-04-15T02:51:51.891Z,81.79
2023-04-15T02:52:51.920Z,83.02
2023-04-15T02:53:51.900Z,81.64
2023-04-15T02:54:51.933Z,80.73
2023-04-15T02:55:51.945Z,82.07
2023-04-15T02:56:51.948Z,81.61
2023-04-15T02:57:51.973Z,80.63
2023-04-15T02:58:51.977Z,81.59
2023-04-15T02:59:51.990Z,80.17
2023-04-15T03:00:52.014Z,80.06
2023-04-15T03:01:52.081Z,82.10
2023-04-15T03:02:52.213Z,80.69
2023-04-15T03:03:52.122Z,80.02
2023-04-15T03:04:52.038Z,79.40
2023-04-15T03:05:52.051Z,79.85
2023-04-15T03:06:52.066Z,80.70
2023-04-15T03:07:52.055Z,80.03
2023-04-15T03:08:52.058Z,80.80
2023-04-15T03:09:52.046Z,80.42
2023-04-15T03:10:52.072Z,79.36
2023-04-15T03:11:52.089Z,78.40
2023-04-15T03:12:52.092Z,80.30
2023-04-15T03:13:52.072Z,79.24
2023-04-15T03:14:52.072Z,79.74
2023-04-15T03:15:52.187Z,78.03
2023-04-15T03:16:52.118Z,77.73
2023-04-15T03:17:52.168Z,77.84
2023-04-15T03:18:52.107Z,77.99
2023-04-15T03:19:52.139Z,79.95
2023-04-15T03:20:52.131Z,79.55
2023-04-15T03:21:52.161Z,79.38
2023-04-15T03:22:52.167Z,79.81
2023-04-15T03:23:52.160Z,79.61
2023-04-15T03:24:52.153Z,78.27
2023-04-15T03:25:52.156Z,79.51
2023-04-15T03:26:52.180Z,79.34
2023-04-15T03:27:52.148Z,79.07
2023-04-15T03:28:52.199Z,78.40
2023-04-15T03:29:52.186Z,79.57
2023-04-15T03:30:52.221Z,76.86
2023-04-15T03:31:52.219Z,78.39
2023-04-15T03:32:52.250Z,77.31
2023-04-15T03:33:52.235Z,77.13
2023-04-15T03:34:52.266Z,76.32
2023-04-15T03:35:52.271Z,79.01
2023-04-15T03:36:52.261Z,79.10
2023-04-15T03:37:52.282Z,79.06
2023-04-15T03:38:52.280Z,78.46
2023-04-15T03:39:52.290Z,77.52
2023-04-15T03:40:52.337Z,75.66
2023-04-15T03:41:52.318Z,79.12
2023-04-15T03:42:52.366Z,78.47
2023-04-15T03:43:52.342Z,76.84
2023-04-15T03:44:52.364Z,75.23
2023-04-15T03:45:52.379Z,75.95
2023-04-15T03:46:52.476Z,78.22
2023-04-15T03:47:52.432Z,75.68
2023-04-15T03:48:52.917Z,75.92
2023-04-15T03:49:52.403Z,74.15
2023-04-15T03:50:52.410Z,76.69
2023-04-15T03:51:52.420Z,75.85
2023-04-15T03:52:52.440Z,75.11
2023-04-15T03:53:52.472Z,78.63
2023-04-15T03:54:52.439Z,75.27
2023-04-15T03:55:52.469Z,74.83
2023-04-15T03:56:52.471Z,75.36
2023-04-15T03:57:52.533Z,75.85
2023-04-15T03:58:52.511Z,76.16
2023-04-15T03:59:52.553Z,73.58
2023-04-15T04:00:52.543Z,75.90
2023-04-15T04:01:52.594Z,76.20
2023-04-15T04:02:52.730Z,74.01
2023-04-15T04:03:52.672Z,75.20
2023-04-15T04:04:52.728Z,74.70
2023-04-15T04:05:52.595Z,73.71
2023-04-15T04:06:52.595Z,73.32
2023-04-15T04:07:52.617Z,72.91
2023-04-15T04:08:52.629Z,74.55
2023-04-15T04:09:52.626Z,73.24
2023-04-15T04:10:52.624Z,72.82
2023-04-15T04:11:52.663Z,74.75
2023-04-15T04:12:52.667Z,70.99
2023-04-15T04:13:52.679Z,72.13
2023-04-15T04:14:52.674Z,74.58
2023-04-15T04:15:52.781Z,74.73
2023-04-15T04:16:52.732Z,73.74
2023-04-15T04:17:52.782Z,73.85
2023-04-15T04:18:52.751Z,73.46
2023-04-15T04:19:52.741Z,72.79
2023-04-15T04:20:52.763Z,72.51
2023-04-15T04:21:52.770Z,71.32
2023-04-15T04:22:52.788Z,72.22
2023-04-15T04:23:52.770Z,71.17
2023-04-15T04:24:52.787Z,73.30
2023-04-15T04:25:52.801Z,71.92
2023-04-15T04:26:52.836Z,70.74
2023-04-15T04:27:52.844Z,70.57
2023-04-15T04:28:52.845Z,71.66
2023-04-15T04:29:52.838Z,70.54
2023-04-15T04:30:52.857Z,70.35
2023-04-15T04:31:52.911Z,73.27
2023-04-15T04:32:52.946Z,71.13
2023-04-15T04:33:52.917Z,70.47
2023-04-15T04:34:52.920Z,70.16
2023-04-15T04:35:52.942Z,70.64
2023-04-15T04:36:52.942Z,70.67
2023-04-15T04:37:52.946Z,70.54
2023-04-15T04:38:52.948Z,69.73
2023-04-15T04:39:52.953Z,69.76
2023-04-15T04:40:52.965Z,69.68
2023-04-15T04:41:52.995Z,70.87
2023-04-15T04:42:53.019Z,68.98
2023-04-15T04:43:53.021Z,71.56
2023-04-15T04:44:53.030Z,70.56
2023-04-15T04:45:53.176Z,69.50
2023-04-15T04:46:53.074Z,71.43
2023-04-15T04:47:53.123Z,69.25
2023-04-15T04:48:53.062Z,68.94
2023-04-15T04:49:53.076Z,68.05
2023-04-15T04:50:53.100Z,71.04
2023-04-15T04:51:53.111Z,70.65
2023-04-15T04:52:53.112Z,71.08
2023-04-15T04:53:53.164Z,67.80
2023-04-15T04:54:53.126Z,66.05
2023-04-15T04:55:53.170Z,68.92
2023-04-15T04:56:53.172Z,70.07
2023-04-15T04:57:53.205Z,69.11
2023-04-15T04:58:53.186Z,68.81
2023-04-15T04:59:53.243Z,68.71
2023-04-15T05:00:53.304Z,68.12
2023-04-15T05:01:53.281Z,68.07
2023-04-15T05:02:53.496Z,65.93
2023-04-15T05:03:53.492Z,66.11
2023-04-15T05:04:53.336Z,66.52
2023-04-15T05:05:53.340Z,67.11
2023-04-15T05:06:53.358Z,66.51
2023-04-15T05:07:53.394Z,65.69
2023-04-15T05:08:53.449Z,66.11
2023-04-15T05:09:53.396Z,65.55
2023-04-15T05:10:53.385Z,66.00
2023-04-15T05:11:53.394Z,65.57
2023-04-15T05:12:53.435Z,65.51
2023-04-15T05:13:53.439Z,66.64
2023-04-15T05:14:53.458Z,66.07
2023-04-15T05:15:53.473Z,66.87
2023-04-15T05:16:53.494Z,65.30
2023-04-15T05:17:53.533Z,67.03
2023-04-15T05:18:53.495Z,66.38
2023-04-15T05:19:53.519Z,65.59
2023-04-15T05:20:53.551Z,66.16
2023-04-15T05:21:53.553Z,64.84
2023-04-15T05:22:53.592Z,63.35
2023-04-15T05:23:53.574Z,66.22
2023-04-15T05:24:53.604Z,61.62
2023-04-15T05:25:53.629Z,60.84
2023-04-15T05:26:53.632Z,65.92
2023-04-15T05:27:53.633Z,64.67
2023-04-15T05:28:53.644Z,65.70
2023-04-15T05:29:53.682Z,63.17
2023-04-15T05:30:53.707Z,63.55
2023-04-15T05:31:53.680Z,64.68
2023-04-15T05:32:53.736Z,65.25
2023-04-15T05:33:53.711Z,63.19
2023-04-15T05:34:53.729Z,63.77
2023-04-15T05:35:53.711Z,63.69
2023-04-15T05:36:53.768Z,64.61
2023-04-15T05:37:53.770Z,61.60
2023-04-15T05:38:53.767Z,60.14
2023-04-15T05:39:53.772Z,63.10
2023-04-15T05:40:53.787Z,62.28
2023-04-15T05:41:53.840Z,64.27
2023-04-15T05:42:53.835Z,63.45
2023-04-15T05:43:53.843Z,62.75
2023-04-15T05:44:53.875Z,62.81
2023-04-15T05:45:53.945Z,62.57
2023-04-15T05:46:53.884Z,62.37
2023-04-15T05:47:53.948Z,62.48
2023-04-15T05:48:55.976Z,59.86
2023-04-15T05:49:54.029Z,61.55
2023-04-15T05:50:54.029Z,61.64
2023-04-15T05:51:54.084Z,62.61
2023-04-15T05:52:54.080Z,64.85
2023-04-15T05:53:54.074Z,61.63
2023-04-15T05:54:54.064Z,62.57
2023-04-15T05:55:54.116Z,62.57
2023-04-15T05:56:54.221Z,62.62
2023-04-15T05:57:54.096Z,61.38
2023-04-15T05:58:54.128Z,60.94
2023-04-15T05:59:54.142Z,61.24
2023-04-15T06:00:54.132Z,59.08
2023-04-15T06:01:54.163Z,59.56
2023-04-15T06:02:54.294Z,59.85
2023-04-15T06:03:54.227Z,60.04
2023-04-15T06:04:54.204Z,60.04
2023-04-15T06:05:54.157Z,61.65
2023-04-15T06:06:54.228Z,62.56
2023-04-15T06:07:54.171Z,60.58
2023-04-15T06:08:54.179Z,60.92
2023-04-15T06:09:54.278Z,58.49
2023-04-15T06:10:54.269Z,58.14
2023-04-15T06:11:54.319Z,59.37
2023-04-15T06:12:54.251Z,60.23
2023-04-15T06:13:54.353Z,58.15
2023-04-15T06:14:54.328Z,58.30
2023-04-15T06:15:54.350Z,57.42
2023-04-15T06:16:54.334Z,57.25
2023-04-15T06:17:54.313Z,57.52
2023-04-15T06:18:54.340Z,58.29
2023-04-15T06:19:54.331Z,59.02
2023-04-15T06:20:54.331Z,58.40
2023-04-15T06:21:54.379Z,57.62
2023-04-15T06:22:54.364Z,61.23
2023-04-15T06:23:54.417Z,58.24
2023-04-15T06:24:54.369Z,59.44
2023-04-15T06:25:54.356Z,58.18
2023-04-15T06:26:54.401Z,57.62
2023-04-15T06:27:54.407Z,57.86
2023-04-15T06:28:54.403Z,57.28
2023-04-15T06:29:54.463Z,58.74
2023-04-15T06:30:54.381Z,57.05
2023-04-15T06:31:54.593Z,57.89
2023-04-15T06:32:54.457Z,57.16
2023-04-15T06:33:54.392Z,57.87
2023-04-15T06:34:54.409Z,56.46
2023-04-15T06:35:54.410Z,53.94
2023-04-15T06:36:54.429Z,56.29
2023-04-15T06:37:54.425Z,58.68
2023-04-15T06:38:54.446Z,57.87
2023-04-15T06:39:54.437Z,56.53
2023-04-15T06:40:54.444Z,56.77
2023-04-15T06:41:54.456Z,56.24
2023-04-15T06:42:54.452Z,56.51
2023-04-15T06:43:54.500Z,54.24
2023-04-15T06:44:54.452Z,56.53
2023-04-15T06:45:54.466Z,54.74
2023-04-15T06:46:54.498Z,53.63
2023-04-15T06:47:54.566Z,53.10
2023-04-15T06:48:54.472Z,57.16
2023-04-15T06:49:54.454Z,56.73
2023-04-15T06:50:54.484Z,53.64
2023-04-15T06:51:54.489Z,57.28
2023-04-15T06:52:54.496Z,53.77
2023-04-15T06:53:54.524Z,52.18
2023-04-15T06:54:54.485Z,52.53
2023-04-15T06:55:54.445Z,54.32
2023-04-15T06:56:54.519Z,52.67
2023-04-15T06:57:54.496Z,53.89
2023-04-15T06:58:54.540Z,50.84
2023-04-15T06:59:54.539Z,54.29
2023-04-15T07:00:54.606Z,54.47
2023-04-15T07:01:54.528Z,53.30
2023-04-15T07:02:54.495Z,51.87
2023-04-15T07:03:54.587Z,54.12
2023-04-15T07:04:54.544Z,53.87
2023-04-15T07:05:54.515Z,52.41
2023-04-15T07:06:54.502Z,51.40
2023-04-15T07:07:54.525Z,53.71
2023-04-15T07:08:54.537Z,52.57
2023-04-15T07:09:54.501Z,53.78
2023-04-15T07:10:54.560Z,53.55
2023-04-15T07:11:54.559Z,53.15
2023-04-15T07:12:54.562Z,52.91
2023-04-15T07:13:54.554Z,54.07
2023-04-15T07:14:54.549Z,53.95
2023-04-15T07:15:54.562Z,51.45
2023-04-15T07:16:54.604Z,48.59
2023-04-15T07:17:54.593Z,47.74
2023-04-15T07:18:54.589Z,49.36
2023-04-15T07:19:54.586Z,48.95
2023-04-15T07:20:54.588Z,49.53
2023-04-15T07:21:54.543Z,48.77
2023-04-15T07:22:54.558Z,49.34
2023-04-15T07:23:54.516Z,51.13
2023-04-15T07:24:54.537Z,48.99
2023-04-15T07:25:54.553Z,49.34
2023-04-15T07:26:54.605Z,51.66
2023-04-15T07:27:54.582Z,48.70
2023-04-15T07:28:54.568Z,47.23
2023-04-15T07:29:54.536Z,50.75
2023-04-15T07:30:54.597Z,48.64
2023-04-15T07:31:54.632Z,45.46
2023-04-15T07:32:54.612Z,47.63
2023-04-15T07:33:54.571Z,47.94
2023-04-15T07:34:54.487Z,48.10
2023-04-15T07:35:54.477Z,45.94
2023-04-15T07:36:54.479Z,46.76
2023-04-15T07:37:54.467Z,44.74
2023-04-15T07:38:54.559Z,47.58
2023-04-15T07:39:54.484Z,50.35
2023-04-15T07:40:54.466Z,47.42
2023-04-15T07:41:54.486Z,47.75
2023-04-15T07:42:54.497Z,49.33
2023-04-15T07:43:54.490Z,47.72
2023-04-15T07:44:54.576Z,47.64
2023-04-15T07:45:54.589Z,48.17
2023-04-15T07:46:54.663Z,45.87
2023-04-15T07:47:54.652Z,45.09
2023-04-15T07:48:54.609Z,45.84
2023-04-15T07:49:54.629Z,48.18
2023-04-15T07:50:54.584Z,45.42
2023-04-15T07:51:54.659Z,46.75
2023-04-15T07:52:54.620Z,45.80
2023-04-15T07:53:54.653Z,46.62
2023-04-15T07:54:54.639Z,45.34
2023-04-15T07:55:54.710Z,44.74
2023-04-15T07:56:54.720Z,44.00
2023-04-15T07:57:54.736Z,46.42
2023-04-15T07:58:54.783Z,45.06
2023-04-15T07:59:54.786Z,46.32
2023-04-15T08:00:54.875Z,44.97
2023-04-15T08:01:54.919Z,45.06
2023-04-15T08:02:55.127Z,48.06
2023-04-15T08:03:55.113Z,46.19
2023-04-15T08:04:55.094Z,45.45
2023-04-15T08:05:55.108Z,46.30
2023-04-15T08:06:55.189Z,46.77
2023-04-15T08:07:55.262Z,45.04
2023-04-15T08:08:55.312Z,44.36
2023-04-15T08:09:55.377Z,44.15
2023-04-15T08:10:55.390Z,45.50
2023-04-15T08:11:55.452Z,43.40
2023-04-15T08:12:55.503Z,45.61
2023-04-15T08:13:55.547Z,47.79
2023-04-15T08:14:55.622Z,47.45
2023-04-15T08:15:55.690Z,46.10
2023-04-15T08:16:55.744Z,47.89
2023-04-15T08:17:55.814Z,45.77
2023-04-15T08:18:55.835Z,47.74
2023-04-15T08:19:55.878Z,47.99
2023-04-15T08:20:55.957Z,47.60
2023-04-15T08:21:56.025Z,46.16
2023-04-15T08:22:56.076Z,46.78
2023-04-15T08:23:56.130Z,45.55
2023-04-15T08:24:56.180Z,43.62
2023-04-15T08:25:56.238Z,47.18
2023-04-15T08:26:56.318Z,45.97
2023-04-15T08:27:56.360Z,44.91
2023-04-15T08:28:56.454Z,43.73
2023-04-15T08:29:56.411Z,41.59
2023-04-15T08:30:56.496Z,47.53
2023-04-15T08:31:56.585Z,44.38
2023-04-15T08:32:56.638Z,44.97
2023-04-15T08:33:56.652Z,45.43
2023-04-15T08:34:56.691Z,44.52
2023-04-15T08:35:56.762Z,45.11
2023-04-15T08:36:56.837Z,45.60
2023-04-15T08:37:56.916Z,45.12
2023-04-15T08:38:56.954Z,44.65
2023-04-15T08:39:57.030Z,44.39
2023-04-15T08:40:57.081Z,41.03
2023-04-15T08:41:57.142Z,40.72
2023-04-15T08:42:57.182Z,41.21
2023-04-15T08:43:57.254Z,40.46
2023-04-15T08:44:57.326Z,40.37
2023-04-15T08:45:57.370Z,38.82
2023-04-15T08:46:57.454Z,42.82
2023-04-15T08:47:57.544Z,40.23
2023-04-15T08:48:57.589Z,43.74
2023-04-15T08:49:57.606Z,40.74
2023-04-15T08:50:57.663Z,39.63
2023-04-15T08:51:57.759Z,39.52
2023-04-15T08:52:57.795Z,42.84
2023-04-15T08:53:57.820Z,39.94
2023-04-15T08:54:57.918Z,41.60
2023-04-15T08:55:57.992Z,41.13
2023-04-15T08:56:58.045Z,40.06
2023-04-15T08:57:58.103Z,40.96
2023-04-15T08:58:58.150Z,40.80
2023-04-15T08:59:58.239Z,40.56
2023-04-15T09:00:58.298Z,42.52
2023-04-15T09:01:58.381Z,40.01
2023-04-15T09:02:58.440Z,39.01
2023-04-15T09:03:58.459Z,39.33
2023-04-15T09:04:58.507Z,38.36
2023-04-15T09:05:58.563Z,40.26
2023-04-15T09:06:58.648Z,39.27
2023-04-15T09:07:58.708Z,43.23
2023-04-15T09:08:58.758Z,39.99
2023-04-15T09:09:58.820Z,39.98
2023-04-15T09:10:58.890Z,40.44
2023-04-15T09:11:58.930Z,40.91
2023-04-15T09:12:58.988Z,42.30
2023-04-15T09:13:59.065Z,41.52
2023-04-15T09:14:59.127Z,39.65
2023-04-15T09:15:59.169Z,40.01
2023-04-15T09:16:59.355Z,41.36
2023-04-15T09:17:59.343Z,44.03
2023-04-15T09:18:59.488Z,40.37
2023-04-15T09:19:59.406Z,42.07
2023-04-15T09:20:59.441Z,42.46
2023-04-15T09:21:59.606Z,42.07
2023-04-15T09:22:59.547Z,40.69
2023-04-15T09:23:59.811Z,41.07
2023-04-15T09:24:59.640Z,40.02
2023-04-15T09:25:59.720Z,40.86
2023-04-15T09:26:59.741Z,41.63
2023-04-15T09:27:59.807Z,41.22
2023-04-15T09:28:59.839Z,40.40
2023-04-15T09:29:59.853Z,40.65
2023-04-15T09:30:59.929Z,40.46
2023-04-15T09:31:59.943Z,42.48
2023-04-15T09:33:00.019Z,39.24
2023-04-15T09:34:00.114Z,40.11
2023-04-15T09:35:00.036Z,37.00
2023-04-15T09:36:00.065Z,34.81
2023-04-15T09:37:00.112Z,33.37
2023-04-15T09:38:00.115Z,29.45
2023-04-15T09:39:00.155Z,26.95
2023-04-15T09:40:00.208Z,26.16
2023-04-15T09:41:00.238Z,29.03
2023-04-15T09:42:00.211Z,25.41
2023-04-15T09:43:00.228Z,26.45
2023-04-15T09:44:00.523Z,26.03
2023-04-15T09:45:00.272Z,28.19
2023-04-15T09:46:00.353Z,29.08
2023-04-15T09:47:00.299Z,25.00
2023-04-15T09:48:00.364Z,28.59
2023-04-15T09:49:00.352Z,32.00
2023-04-15T09:50:00.491Z,34.01
2023-04-15T09:51:00.396Z,31.28
2023-04-15T09:52:05.481Z,34.79
2023-04-15T09:53:01.462Z,35.02
2023-04-15T09:54:00.555Z,35.77
2023-04-15T09:55:00.467Z,36.12
2023-04-15T09:56:00.396Z,36.28
2023-04-15T09:57:00.408Z,39.41
2023-04-15T09:58:00.417Z,39.30
2023-04-15T09:59:00.394Z,41.75
2023-04-15T10:00:00.394Z,39.91
2023-04-15T10:01:00.389Z,42.20
2023-04-15T10:02:00.377Z,41.27
2023-04-15T10:03:00.485Z,45.65
2023-04-15T10:04:00.606Z,44.47
2023-04-15T10:05:00.338Z,45.44
2023-04-15T10:06:00.353Z,44.02
2023-04-15T10:07:00.350Z,47.37
2023-04-15T10:08:00.333Z,45.92
2023-04-15T10:09:00.330Z,44.78
2023-04-15T10:10:00.297Z,45.50
2023-04-15T10:11:00.343Z,48.22
2023-04-15T10:12:00.357Z,46.72
2023-04-15T10:13:00.369Z,47.69
2023-04-15T10:14:00.728Z,47.37
2023-04-15T10:15:00.467Z,47.87
2023-04-15T10:16:00.608Z,44.45
2023-04-15T10:17:00.539Z,49.38
2023-04-15T10:18:00.630Z,51.09
2023-04-15T10:19:00.614Z,48.28
2023-04-15T10:20:00.660Z,51.65
2023-04-15T10:21:00.693Z,49.87
2023-04-15T10:22:00.731Z,49.76
2023-04-15T10:23:00.796Z,50.34
2023-04-15T10:24:00.928Z,49.03
2023-04-15T10:25:00.864Z,50.38
2023-04-15T10:26:00.861Z,50.77
2023-04-15T10:27:00.904Z,48.98
2023-04-15T10:28:00.935Z,48.79
2023-04-15T10:29:00.968Z,50.46
2023-04-15T10:30:01.007Z,48.82
2023-04-15T10:31:01.059Z,50.84
2023-04-15T10:32:01.089Z,51.29
2023-04-15T10:33:01.124Z,53.59
2023-04-15T10:34:01.387Z,50.81
2023-04-15T10:35:01.199Z,49.18
2023-04-15T10:36:01.204Z,50.76
2023-04-15T10:37:01.238Z,48.80
2023-04-15T10:38:01.298Z,55.15
2023-04-15T10:39:01.311Z,50.78
2023-04-15T10:40:01.301Z,53.79
2023-04-15T10:41:01.344Z,51.27
2023-04-15T10:42:01.434Z,50.05
2023-04-15T10:43:01.399Z,52.73
2023-04-15T10:44:01.613Z,52.87
2023-04-15T10:45:01.489Z,53.35
2023-04-15T10:46:01.479Z,48.42
2023-04-15T10:47:01.546Z,51.93
2023-04-15T10:48:03.455Z,49.89
2023-04-15T10:49:01.586Z,49.66
2023-04-15T10:50:01.665Z,47.41
2023-04-15T10:51:01.607Z,42.53
2023-04-15T10:52:01.658Z,46.93
2023-04-15T10:53:01.677Z,47.75
2023-04-15T10:54:01.735Z,48.59
2023-04-15T10:55:01.770Z,49.57
2023-04-15T10:56:01.763Z,47.12
2023-04-15T10:57:01.813Z,47.16
2023-04-15T10:58:01.786Z,49.52
2023-04-15T10:59:01.805Z,46.87
2023-04-15T11:00:01.809Z,49.05
2023-04-15T11:01:01.846Z,51.32
2023-04-15T11:02:01.942Z,51.05
2023-04-15T11:03:01.972Z,44.95
2023-04-15T11:04:02.326Z,51.53
2023-04-15T11:05:02.016Z,46.76
2023-04-15T11:06:02.013Z,48.15
2023-04-15T11:07:02.090Z,49.59
2023-04-15T11:08:02.075Z,49.29
2023-04-15T11:09:02.146Z,47.53
2023-04-15T11:10:02.144Z,50.34
2023-04-15T11:11:02.180Z,45.31
2023-04-15T11:12:02.233Z,51.12
2023-04-15T11:13:02.269Z,47.43
2023-04-15T11:14:02.451Z,53.27
2023-04-15T11:15:02.326Z,52.84
2023-04-15T11:16:02.366Z,53.61
2023-04-15T11:17:02.374Z,51.30
2023-04-15T11:18:02.424Z,49.09
2023-04-15T11:19:02.429Z,54.37
2023-04-15T11:20:02.479Z,52.18
2023-04-15T11:21:02.500Z,52.06
2023-04-15T11:22:02.514Z,49.23
2023-04-15T11:23:13.396Z,51.06
2023-04-15T11:24:04.075Z,51.27
2023-04-15T11:25:02.571Z,51.68
2023-04-15T11:26:02.579Z,52.20
2023-04-15T11:27:02.520Z,51.30
2023-04-15T11:28:02.529Z,52.94
2023-04-15T11:29:02.736Z,49.67
2023-04-15T11:30:02.493Z,52.49
2023-04-15T11:31:02.515Z,51.79
2023-04-15T11:32:02.588Z,53.64
2023-04-15T11:33:02.517Z,51.35
2023-04-15T11:34:02.503Z,53.52
2023-04-15T11:35:02.474Z,51.39
2023-04-15T11:36:02.535Z,53.80
2023-04-15T11:37:02.491Z,50.26
2023-04-15T11:38:02.447Z,48.24
2023-04-15T11:39:02.424Z,52.25
2023-04-15T11:40:02.417Z,53.94
2023-04-15T11:41:02.446Z,50.36
2023-04-15T11:42:02.481Z,51.00
2023-04-15T11:43:02.525Z,50.42
2023-04-15T11:44:02.838Z,49.38
2023-04-15T11:45:02.591Z,54.14
2023-04-15T11:46:02.786Z,55.46
2023-04-15T11:47:02.681Z,55.00
2023-04-15T11:48:02.702Z,51.77
2023-04-15T11:49:02.720Z,54.39
2023-04-15T11:50:02.728Z,52.75
2023-04-15T11:51:02.776Z,53.36
2023-04-15T11:52:02.813Z,49.27
2023-04-15T11:53:02.832Z,51.00
2023-04-15T11:54:03.263Z,49.87
2023-04-15T11:55:02.936Z,50.66
2023-04-15T11:56:02.951Z,52.27
2023-04-15T11:57:02.972Z,48.98
2023-04-15T11:58:03.003Z,51.00
2023-04-15T11:59:03.035Z,51.34
2023-04-15T12:00:03.082Z,51.87
2023-04-15T12:01:03.116Z,52.48
2023-04-15T12:02:03.240Z,50.56
2023-04-15T12:03:03.323Z,53.19
2023-04-15T12:04:03.838Z,52.94
2023-04-15T12:05:03.380Z,55.64
2023-04-15T12:06:03.347Z,51.38
2023-04-15T12:07:03.368Z,51.91
2023-04-15T12:08:03.399Z,55.65
2023-04-15T12:09:03.464Z,52.35
2023-04-15T12:10:03.524Z,53.87
2023-04-15T12:11:03.539Z,56.25
2023-04-15T12:12:03.607Z,54.20
2023-04-15T12:13:03.632Z,51.42
2023-04-15T12:14:03.911Z,51.27
2023-04-15T12:15:03.724Z,55.24
2023-04-15T12:16:03.800Z,52.54
2023-04-15T12:17:03.808Z,50.09
2023-04-15T12:18:03.857Z,54.51
2023-04-15T12:19:03.870Z,52.87
2023-04-15T12:20:03.940Z,52.06
2023-04-15T12:21:03.961Z,51.60
2023-04-15T12:22:04.009Z,51.60
2023-04-15T12:23:04.023Z,48.47
2023-04-15T12:24:04.313Z,49.13
2023-04-15T12:25:04.127Z,48.54
2023-04-15T12:26:04.176Z,49.52
2023-04-15T12:27:04.197Z,51.00
2023-04-15T12:28:04.221Z,49.23
2023-04-15T12:29:04.280Z,48.29
2023-04-15T12:30:04.325Z,51.32
2023-04-15T12:31:04.356Z,51.54
2023-04-15T12:32:04.390Z,49.01
2023-04-15T12:33:04.445Z,50.03
2023-04-15T12:34:04.691Z,51.57
2023-04-15T12:35:04.511Z,47.33
2023-04-15T12:36:04.556Z,48.79
2023-04-15T12:37:04.581Z,48.12
2023-04-15T12:38:04.697Z,43.51
2023-04-15T12:39:04.715Z,40.64
2023-04-15T12:40:04.728Z,41.27
2023-04-15T12:41:04.782Z,43.11
2023-04-15T12:42:04.863Z,41.10
2023-04-15T12:43:04.873Z,37.67
2023-04-15T12:44:05.023Z,42.15
2023-04-15T12:45:04.997Z,38.96
2023-04-15T12:46:05.077Z,41.16
2023-04-15T12:47:05.106Z,41.21
2023-04-15T12:48:05.156Z,38.18
2023-04-15T12:49:05.231Z,38.76
2023-04-15T12:50:05.326Z,42.11
2023-04-15T12:51:05.843Z,41.74
2023-04-15T12:52:05.434Z,39.95
2023-04-15T12:53:05.457Z,41.39